X  Close Metar Aviation Weather Data     EHKD De Kooy Airport
Temperature
15°C Temperature
11°C Dewpoint
77% Humidity



Wind
26 KM/H
16 MPH
7 M/S
14 KTS



230°
SW
Current Conditions

Partly Cloudy Partly Cloudy
Pressure 1015.92 (hPa) - 30 (inHg)
Visibility 6 (mile) - 9.7 (km)
Airport
Airport-code EHKD

Location: De Kooy Airport
Distance: 34 (km)

Metar:
EHKD 280955Z AUTO 23014KT 180V260 9999 FEW016 15/11 Q1016 BLU NOSIG

Time: 28-05-2024 11:55 CEST